createdAt,value
2019-04-06T00:01:57.226Z,22.85
2019-04-06T00:04:25.571Z,26.95
2019-04-06T00:06:54.004Z,30.15
2019-04-06T00:09:22.332Z,35.38
2019-04-06T00:11:52.155Z,21.07
2019-04-06T00:14:20.553Z,26.95
2019-04-06T00:16:49.154Z,23.18
2019-04-06T00:19:17.618Z,26.00
2019-04-06T00:21:46.016Z,23.67
2019-04-06T00:24:14.586Z,35.55
2019-04-06T00:26:43.376Z,26.95
2019-04-06T00:29:11.725Z,30.95
2019-04-06T00:32:08.636Z,26.57
2019-04-06T00:34:37.501Z,35.10
2019-04-06T00:37:06.012Z,32.30
2019-04-06T00:39:34.480Z,33.30
2019-04-06T00:42:03.636Z,27.80
2019-04-06T00:44:32.144Z,32.70
2019-04-06T00:47:00.480Z,35.10
2019-04-06T00:49:29.235Z,24.75
2019-04-06T00:51:58.178Z,29.20
2019-04-06T00:54:26.451Z,25.12
2019-04-06T00:56:54.929Z,27.22
2019-04-06T00:59:23.987Z,26.00
2019-04-06T01:01:54.479Z,35.85
2019-04-06T01:04:23.390Z,30.90
2019-04-06T01:06:52.136Z,28.05
2019-04-06T01:09:21.015Z,26.52
2019-04-06T01:11:49.758Z,28.30
2019-04-06T01:14:18.134Z,29.63
2019-04-06T01:16:46.854Z,23.32
2019-04-06T01:19:15.275Z,25.97
2019-04-06T01:21:43.958Z,23.47
2019-04-06T01:24:12.674Z,30.50
2019-04-06T01:26:40.947Z,24.05
2019-04-06T01:29:09.448Z,29.30
2019-04-06T01:31:37.976Z,32.78
2019-04-06T01:34:06.780Z,30.05
2019-04-06T01:36:35.440Z,26.90
2019-04-06T01:39:06.164Z,30.23
2019-04-06T01:41:34.671Z,26.87
2019-04-06T01:44:03.125Z,31.68
2019-04-06T01:46:32.062Z,25.35
2019-04-06T01:49:01.281Z,25.65
2019-04-06T01:51:29.741Z,32.55
2019-04-06T01:53:58.488Z,30.57
2019-04-06T01:56:27.404Z,23.70
2019-04-06T01:58:56.022Z,33.58
2019-04-06T02:01:43.993Z,26.00
2019-04-06T02:04:14.393Z,39.08
2019-04-06T02:06:42.746Z,24.27
2019-04-06T02:09:11.073Z,34.80
2019-04-06T02:11:39.802Z,27.85
2019-04-06T02:14:08.254Z,25.92
2019-04-06T02:16:37.482Z,32.20
2019-04-06T02:19:06.209Z,30.27
2019-04-06T02:21:35.095Z,29.95
2019-04-06T02:24:03.924Z,24.77
2019-04-06T02:26:32.810Z,24.75
2019-04-06T02:29:02.046Z,29.48
2019-04-06T02:31:48.932Z,30.85
2019-04-06T02:34:29.071Z,27.25
2019-04-06T02:37:32.913Z,30.80
2019-04-06T02:40:39.427Z,26.70
2019-04-06T02:43:11.633Z,27.00
2019-04-06T02:45:40.899Z,24.23
2019-04-06T02:48:09.425Z,24.72
2019-04-06T02:50:37.880Z,27.52
2019-04-06T02:53:06.605Z,28.80
2019-04-06T02:55:35.972Z,30.55
2019-04-06T02:58:04.612Z,31.85
2019-04-06T03:00:33.650Z,26.93
2019-04-06T03:03:02.317Z,28.38
2019-04-06T03:08:01.311Z,37.13
2019-04-06T03:10:30.246Z,23.30
2019-04-06T03:12:58.558Z,25.40
2019-04-06T03:15:27.008Z,27.35
2019-04-06T03:17:55.954Z,32.50
2019-04-06T03:20:24.727Z,26.60
2019-04-06T03:22:53.211Z,28.55
2019-04-06T03:25:21.749Z,23.50
2019-04-06T03:27:50.090Z,33.28
2019-04-06T03:30:18.992Z,28.12
2019-04-06T03:32:47.432Z,25.50
2019-04-06T03:35:15.888Z,32.35
2019-04-06T03:37:44.187Z,32.35
2019-04-06T03:40:13.189Z,24.27
2019-04-06T03:42:41.888Z,27.30
2019-04-06T03:45:10.330Z,26.50
2019-04-06T03:47:38.982Z,27.13
2019-04-06T03:50:07.868Z,26.00
2019-04-06T03:52:36.396Z,25.32
2019-04-06T03:55:07.267Z,37.48
2019-04-06T03:57:35.850Z,24.67
2019-04-06T04:00:06.374Z,24.47
2019-04-06T04:02:35.119Z,26.37
2019-04-06T04:05:06.289Z,28.73
2019-04-06T04:07:37.111Z,21.35
2019-04-06T04:10:06.642Z,24.15
2019-04-06T04:12:35.749Z,29.00
2019-04-06T04:15:05.206Z,28.05
2019-04-06T04:17:33.929Z,28.15
2019-04-06T04:20:03.090Z,27.42
2019-04-06T04:22:34.581Z,28.17
2019-04-06T04:25:02.972Z,27.58
2019-04-06T04:27:31.495Z,27.30
2019-04-06T04:29:59.865Z,26.35
2019-04-06T04:32:28.554Z,28.05
2019-04-06T04:34:57.343Z,21.52
2019-04-06T04:37:25.965Z,23.98
2019-04-06T04:39:54.338Z,27.55
2019-04-06T04:42:23.538Z,25.55
2019-04-06T04:44:51.982Z,28.15
2019-04-06T04:47:20.520Z,27.45
2019-04-06T04:49:49.231Z,30.27
2019-04-06T04:52:17.743Z,27.32
2019-04-06T04:54:46.475Z,32.13
2019-04-06T04:57:15.108Z,30.82
2019-04-06T04:59:43.791Z,31.12
2019-04-06T05:02:13.277Z,25.43
2019-04-06T05:04:41.821Z,30.68
2019-04-06T05:07:10.502Z,22.48
2019-04-06T05:09:41.316Z,31.20
2019-04-06T05:12:10.270Z,35.48
2019-04-06T05:15:03.892Z,28.38
2019-04-06T05:17:32.707Z,28.17
2019-04-06T05:20:01.324Z,32.55
2019-04-06T05:22:30.056Z,26.77
2019-04-06T05:24:58.822Z,30.32
2019-04-06T05:27:27.348Z,22.87
2019-04-06T05:29:55.636Z,27.95
2019-04-06T05:32:24.481Z,23.05
2019-04-06T05:34:52.815Z,31.40
2019-04-06T05:37:21.453Z,33.83
2019-04-06T05:39:50.263Z,38.48
2019-04-06T05:42:18.817Z,25.92
2019-04-06T05:44:47.514Z,34.48
2019-04-06T05:47:16.086Z,28.62
2019-04-06T05:49:44.768Z,29.02
2019-04-06T05:52:13.151Z,37.23
2019-04-06T05:54:41.944Z,29.10
2019-04-06T05:57:10.521Z,29.35
2019-04-06T05:59:40.972Z,29.40
2019-04-06T06:02:10.045Z,27.80
2019-04-06T06:04:40.997Z,24.18
2019-04-06T06:07:09.660Z,30.72
2019-04-06T06:09:38.360Z,27.80
2019-04-06T06:12:10.403Z,22.02
2019-04-06T06:14:39.125Z,27.05
2019-04-06T06:17:07.858Z,32.80
2019-04-06T06:19:36.201Z,29.10
2019-04-06T06:22:05.207Z,28.67
2019-04-06T06:24:34.987Z,26.87
2019-04-06T06:27:04.094Z,25.50
2019-04-06T06:29:32.528Z,27.10
2019-04-06T06:32:01.451Z,35.85
2019-04-06T06:34:29.815Z,29.00
2019-04-06T06:36:58.839Z,25.82
2019-04-06T06:39:27.494Z,28.52
2019-04-06T06:41:55.883Z,27.37
2019-04-06T06:44:24.668Z,27.90
2019-04-06T06:46:53.560Z,34.55
2019-04-06T06:49:22.290Z,26.23
2019-04-06T06:51:51.057Z,27.48
2019-04-06T06:54:19.922Z,38.30
2019-04-06T06:56:48.976Z,26.02
2019-04-06T06:59:17.702Z,25.50
2019-04-06T07:01:46.309Z,33.42
2019-04-06T07:04:14.999Z,26.40
2019-04-06T07:06:43.419Z,23.73
2019-04-06T07:09:12.081Z,23.12
2019-04-06T07:11:41.216Z,31.93
2019-04-06T07:14:11.707Z,26.87
2019-04-06T07:16:40.084Z,26.97
2019-04-06T07:19:08.640Z,22.65
2019-04-06T07:21:37.070Z,27.35
2019-04-06T07:24:05.959Z,24.05
2019-04-06T07:26:35.047Z,27.27
2019-04-06T07:29:04.645Z,25.45
2019-04-06T07:31:33.207Z,31.52
2019-04-06T07:34:02.192Z,32.00
2019-04-06T07:36:30.979Z,20.25
2019-04-06T07:38:59.743Z,22.70
2019-04-06T07:41:29.059Z,25.05
2019-04-06T07:43:58.172Z,23.92
2019-04-06T07:46:26.573Z,26.07
2019-04-06T07:48:55.505Z,24.00
2019-04-06T07:51:24.662Z,22.07
2019-04-06T07:53:53.993Z,21.55
2019-04-06T07:56:23.523Z,24.05
2019-04-06T07:58:52.109Z,23.87
2019-04-06T08:01:20.681Z,29.65
2019-04-06T08:03:52.009Z,30.72
2019-04-06T08:06:20.501Z,21.90
2019-04-06T08:08:49.039Z,22.75
2019-04-06T08:11:17.583Z,21.07
2019-04-06T08:13:46.623Z,17.02
2019-04-06T08:16:17.104Z,23.47
2019-04-06T08:18:46.014Z,17.70
2019-04-06T08:21:14.997Z,20.75
2019-04-06T08:23:44.161Z,20.97
2019-04-06T08:26:13.069Z,25.97
2019-04-06T08:28:42.060Z,17.37
2019-04-06T08:31:10.753Z,23.60
2019-04-06T08:33:39.776Z,18.92
2019-04-06T08:36:08.673Z,16.77
2019-04-06T08:38:37.790Z,18.30
2019-04-06T08:41:06.380Z,20.97
2019-04-06T08:43:35.393Z,15.98
2019-04-06T08:46:04.705Z,19.90
2019-04-06T08:48:33.358Z,20.32
2019-04-06T08:51:01.763Z,17.60
2019-04-06T08:53:30.788Z,27.37
2019-04-06T08:55:59.597Z,21.60
2019-04-06T08:58:28.159Z,21.42
2019-04-06T09:00:56.961Z,22.25
2019-04-06T09:03:26.072Z,16.87
2019-04-06T09:05:54.854Z,22.05
2019-04-06T09:08:23.506Z,18.05
2019-04-06T09:10:52.227Z,20.90
2019-04-06T09:13:21.091Z,27.90
2019-04-06T09:15:49.964Z,20.08
2019-04-06T09:18:20.604Z,20.60
2019-04-06T09:20:49.432Z,23.38
2019-04-06T09:23:18.207Z,18.15
2019-04-06T09:25:47.198Z,17.87
2019-04-06T09:28:15.765Z,20.02
2019-04-06T09:30:44.787Z,13.10
2019-04-06T09:33:14.092Z,23.15
2019-04-06T09:35:42.748Z,27.27
2019-04-06T09:38:18.117Z,14.18
2019-04-06T09:40:48.579Z,21.10
2019-04-06T09:43:17.335Z,23.65
2019-04-06T09:46:04.715Z,17.20
2019-04-06T09:48:58.816Z,19.98
2019-04-06T09:51:59.124Z,25.57
2019-04-06T09:57:43.575Z,13.62
2019-04-06T10:00:29.452Z,16.10
2019-04-06T10:03:17.856Z,20.97
2019-04-06T10:06:02.711Z,13.30
2019-04-06T10:09:06.214Z,20.72
2019-04-06T10:11:54.776Z,19.73
2019-04-06T10:14:43.246Z,19.77
2019-04-06T10:17:42.612Z,13.68
2019-04-06T10:20:35.565Z,20.92
2019-04-06T10:23:20.323Z,20.97
2019-04-06T10:26:11.867Z,12.47
2019-04-06T10:29:00.357Z,16.57
2019-04-06T10:34:50.993Z,18.60
2019-04-06T10:37:45.102Z,19.98
2019-04-06T10:40:39.588Z,12.07
2019-04-06T10:43:40.144Z,16.00
2019-04-06T10:46:27.304Z,13.05
2019-04-06T10:49:13.752Z,9.95
2019-04-06T10:52:02.087Z,20.80
2019-04-06T10:54:49.140Z,17.12
2019-04-06T10:57:41.360Z,22.60
2019-04-06T11:00:28.980Z,10.60
2019-04-06T11:03:07.643Z,16.32
2019-04-06T11:05:44.585Z,15.50
2019-04-06T11:08:29.426Z,11.40
2019-04-06T11:11:19.828Z,20.20
2019-04-06T11:14:04.879Z,13.90
2019-04-06T11:16:51.753Z,18.82
2019-04-06T11:19:42.740Z,17.35
2019-04-06T11:22:33.618Z,13.53
2019-04-06T11:25:20.685Z,17.23
2019-04-06T11:28:14.802Z,16.87
2019-04-06T11:31:04.180Z,15.60
2019-04-06T11:33:53.794Z,15.43
2019-04-06T11:36:31.783Z,19.23
2019-04-06T11:39:25.755Z,14.80
2019-04-06T11:42:13.478Z,14.87
2019-04-06T11:45:13.632Z,19.57
2019-04-06T11:50:53.732Z,16.62
2019-04-06T11:53:50.481Z,17.45
2019-04-06T11:56:37.243Z,26.00
2019-04-06T11:59:16.812Z,14.63
2019-04-06T12:02:11.615Z,16.20
2019-04-06T12:04:55.414Z,13.90
2019-04-06T12:07:42.262Z,17.42
2019-04-06T12:10:42.492Z,16.73
2019-04-06T12:16:21.498Z,22.35
2019-04-06T12:19:11.411Z,17.12
2019-04-06T12:21:58.280Z,18.15
2019-04-06T12:24:46.983Z,27.50
2019-04-06T12:27:27.613Z,19.60
2019-04-06T12:30:03.604Z,13.08
2019-04-06T12:32:51.544Z,14.83
2019-04-06T12:35:42.848Z,12.00
2019-04-06T12:38:37.122Z,16.75
2019-04-06T12:41:23.767Z,19.27
2019-04-06T12:44:11.783Z,13.78
2019-04-06T12:47:12.101Z,18.82
2019-04-06T12:49:55.573Z,14.10
2019-04-06T12:52:42.466Z,12.65
2019-04-06T12:55:31.119Z,18.80
2019-04-06T12:58:31.524Z,19.48
2019-04-06T13:04:24.518Z,19.12
2019-04-06T13:07:12.424Z,20.92
2019-04-06T13:10:03.799Z,12.95
2019-04-06T13:12:48.352Z,20.52
2019-04-06T13:15:45.932Z,19.05
2019-04-06T13:18:40.168Z,17.65
2019-04-06T13:21:46.353Z,18.52
2019-04-06T13:24:29.019Z,15.20
2019-04-06T13:27:08.558Z,16.20
2019-04-06T13:29:51.239Z,14.85
2019-04-06T13:32:52.071Z,20.10
2019-04-06T13:35:36.607Z,15.55
2019-04-06T13:38:30.468Z,14.68
2019-04-06T13:41:16.351Z,11.53
2019-04-06T13:43:56.677Z,16.85
2019-04-06T13:46:35.926Z,18.92
2019-04-06T13:49:36.387Z,17.75
2019-04-06T13:52:25.951Z,14.15
2019-04-06T13:55:05.374Z,18.42
2019-04-06T13:57:53.708Z,16.73
2019-04-06T14:00:47.820Z,15.60
2019-04-06T14:03:29.487Z,15.72
2019-04-06T14:06:18.127Z,14.13
2019-04-06T14:09:05.260Z,20.08
2019-04-06T14:11:40.991Z,18.07
2019-04-06T14:14:29.845Z,19.05
2019-04-06T14:17:21.090Z,13.53
2019-04-06T14:20:21.424Z,11.93
2019-04-06T14:26:21.891Z,18.17
2019-04-06T14:29:20.981Z,19.55
2019-04-06T14:32:04.309Z,14.30
2019-04-06T14:34:49.090Z,22.67
2019-04-06T14:37:36.498Z,22.07
2019-04-06T14:40:24.839Z,17.55
2019-04-06T14:43:04.536Z,13.88
2019-04-06T14:46:03.164Z,16.75
2019-04-06T14:49:09.583Z,19.60
2019-04-06T14:51:40.280Z,23.18
2019-04-06T14:54:46.398Z,25.00
2019-04-06T14:57:34.476Z,17.75
2019-04-06T15:00:16.661Z,17.25
2019-04-06T15:03:22.612Z,23.83
2019-04-06T15:06:03.923Z,14.63
2019-04-06T15:08:52.441Z,17.17
2019-04-06T15:11:43.566Z,18.23
2019-04-06T15:14:34.907Z,24.47
2019-04-06T15:17:21.443Z,27.05
2019-04-06T15:20:12.692Z,20.72
2019-04-06T15:22:53.199Z,17.25
2019-04-06T15:28:26.435Z,25.08
2019-04-06T15:31:23.388Z,24.72
2019-04-06T15:34:11.810Z,26.00
2019-04-06T15:36:46.783Z,25.85
2019-04-06T15:39:36.922Z,23.55
2019-04-06T15:42:37.552Z,22.70
2019-04-06T15:45:22.366Z,19.57
2019-04-06T15:48:05.275Z,25.68
2019-04-06T15:50:59.964Z,14.47
2019-04-06T15:53:49.740Z,20.23
2019-04-06T15:56:42.825Z,21.82
2019-04-06T15:59:34.036Z,29.65
2019-04-06T16:02:11.839Z,21.48
2019-04-06T16:05:08.775Z,19.10
2019-04-06T16:07:59.611Z,17.75
2019-04-06T16:10:46.360Z,21.57
2019-04-06T16:13:34.927Z,22.67
2019-04-06T16:16:10.406Z,17.98
2019-04-06T16:18:57.613Z,22.87
2019-04-06T16:21:44.850Z,18.07
2019-04-06T16:24:36.163Z,17.05
2019-04-06T16:27:29.998Z,18.90
2019-04-06T16:30:15.647Z,21.45
2019-04-06T16:32:53.245Z,20.70
2019-04-06T16:35:53.787Z,18.55
2019-04-06T16:41:32.574Z,18.12
2019-04-06T16:44:06.570Z,23.30
2019-04-06T16:46:50.936Z,20.52
2019-04-06T16:49:39.153Z,14.55
2019-04-06T16:52:27.663Z,25.32
2019-04-06T16:55:18.769Z,18.10
2019-04-06T16:57:58.001Z,30.17
2019-04-06T17:00:47.317Z,19.25
2019-04-06T17:03:43.143Z,20.05
2019-04-06T17:06:31.898Z,29.55
2019-04-06T17:09:18.406Z,20.12
2019-04-06T17:12:04.996Z,23.50
2019-04-06T17:14:55.765Z,22.50
2019-04-06T17:20:39.995Z,18.80
2019-04-06T17:23:23.354Z,18.92
2019-04-06T17:26:10.527Z,21.25
2019-04-06T17:29:02.588Z,24.07
2019-04-06T17:31:49.277Z,15.68
2019-04-06T17:34:53.853Z,20.45
2019-04-06T17:37:45.335Z,17.23
2019-04-06T17:40:38.978Z,22.10
2019-04-06T17:43:34.027Z,24.18
2019-04-06T17:46:31.524Z,23.45
2019-04-06T17:49:10.190Z,19.37
2019-04-06T17:51:47.981Z,21.97
2019-04-06T17:54:42.352Z,23.83
2019-04-06T17:57:42.669Z,22.85
2019-04-06T18:00:29.642Z,35.85
2019-04-06T18:03:20.648Z,19.25
2019-04-06T18:06:06.144Z,21.68
2019-04-06T18:08:52.596Z,24.95
2019-04-06T18:11:43.682Z,27.50
2019-04-06T18:14:12.629Z,27.30
2019-04-06T18:16:41.246Z,28.05
2019-04-06T18:19:10.218Z,24.37
2019-04-06T18:21:39.158Z,23.85
2019-04-06T18:24:08.332Z,26.40
2019-04-06T18:26:36.832Z,32.25
2019-04-06T18:29:05.534Z,24.23
2019-04-06T18:31:50.494Z,22.95
2019-04-06T18:34:21.072Z,30.12
2019-04-06T18:37:22.801Z,33.75
2019-04-06T18:39:54.890Z,27.42
2019-04-06T18:42:24.467Z,35.35
2019-04-06T18:44:53.056Z,36.88
2019-04-06T18:47:21.998Z,31.97
2019-04-06T18:49:50.407Z,27.73
2019-04-06T18:52:19.302Z,29.90
2019-04-06T18:54:48.233Z,28.45
2019-04-06T18:57:17.314Z,36.38
2019-04-06T18:59:46.104Z,32.42
2019-04-06T19:02:14.803Z,25.65
2019-04-06T19:04:44.009Z,37.25
2019-04-06T19:07:12.664Z,30.55
2019-04-06T19:09:41.554Z,30.55
2019-04-06T19:12:10.056Z,35.38
2019-04-06T19:14:38.509Z,26.45
2019-04-06T19:17:07.497Z,34.35
2019-04-06T19:19:36.370Z,30.60
2019-04-06T19:22:05.150Z,34.90
2019-04-06T19:24:34.036Z,29.70
2019-04-06T19:27:03.420Z,41.53
2019-04-06T19:29:32.908Z,32.78
2019-04-06T19:32:02.845Z,40.03
2019-04-06T19:34:33.360Z,34.63
2019-04-06T19:37:03.917Z,35.43
2019-04-06T19:39:32.615Z,37.42
2019-04-06T19:42:00.895Z,37.30
2019-04-06T19:44:29.799Z,38.58
2019-04-06T19:46:58.620Z,45.30
2019-04-06T19:49:27.698Z,35.03
2019-04-06T19:51:57.088Z,38.70
2019-04-06T19:54:25.817Z,36.08
2019-04-06T19:56:54.338Z,37.05
2019-04-06T19:59:22.983Z,43.98
2019-04-06T20:01:51.934Z,30.88
2019-04-06T20:04:20.709Z,29.40
2019-04-06T20:06:50.448Z,36.83
2019-04-06T20:09:19.803Z,45.37
2019-04-06T20:11:48.759Z,38.23
2019-04-06T20:14:17.896Z,36.23
2019-04-06T20:16:46.559Z,30.85
2019-04-06T20:19:15.231Z,34.55
2019-04-06T20:21:43.954Z,33.80
2019-04-06T20:24:12.812Z,38.58
2019-04-06T20:26:41.633Z,34.38
2019-04-06T20:29:10.309Z,36.45
2019-04-06T20:31:38.665Z,44.60
2019-04-06T20:34:07.775Z,41.42
2019-04-06T20:36:38.227Z,42.90
2019-04-06T20:39:09.402Z,43.30
2019-04-06T20:41:38.182Z,48.73
2019-04-06T20:44:07.636Z,40.40
2019-04-06T20:46:36.486Z,42.17
2019-04-06T20:49:05.538Z,37.80
2019-04-06T20:51:34.461Z,38.83
2019-04-06T20:54:04.298Z,42.93
2019-04-06T20:56:33.028Z,47.30
2019-04-06T20:59:02.946Z,44.30
2019-04-06T21:01:32.325Z,50.23
2019-04-06T21:04:03.182Z,47.17
2019-04-06T21:06:32.452Z,42.15
2019-04-06T21:09:04.339Z,39.50
2019-04-06T21:11:34.016Z,49.15
2019-04-06T21:14:03.334Z,49.20
2019-04-06T21:16:32.421Z,40.83
2019-04-06T21:19:02.879Z,47.48
2019-04-06T21:21:31.506Z,57.80
2019-04-06T21:24:00.456Z,43.52
2019-04-06T21:26:30.049Z,40.58
2019-04-06T21:28:59.388Z,42.85
2019-04-06T21:31:27.749Z,46.55
2019-04-06T21:33:57.137Z,49.05
2019-04-06T21:36:25.680Z,44.30
2019-04-06T21:38:57.084Z,41.30
2019-04-06T21:41:28.931Z,49.20
2019-04-06T21:43:57.668Z,39.03
2019-04-06T21:46:26.356Z,50.35
2019-04-06T21:48:55.047Z,48.23
2019-04-06T21:51:24.123Z,48.52
2019-04-06T21:53:52.972Z,47.45
2019-04-06T21:56:21.548Z,50.75
2019-04-06T21:58:50.441Z,49.63
2019-04-06T22:01:20.938Z,53.73
2019-04-06T22:03:50.665Z,60.48
2019-04-06T22:06:20.607Z,47.90
2019-04-06T22:08:50.100Z,46.00
2019-04-06T22:11:18.825Z,41.50
2019-04-06T22:13:47.483Z,57.90
2019-04-06T22:16:16.693Z,47.20
2019-04-06T22:18:45.403Z,45.48
2019-04-06T22:21:14.753Z,52.08
2019-04-06T22:23:45.076Z,45.12
2019-04-06T22:26:14.566Z,48.55
2019-04-06T22:28:43.519Z,48.73
2019-04-06T22:31:12.360Z,54.35
2019-04-06T22:33:40.907Z,47.38
2019-04-06T22:36:10.053Z,48.73
2019-04-06T22:38:38.900Z,47.50
2019-04-06T22:41:09.181Z,46.75
2019-04-06T22:43:40.045Z,60.05
2019-04-06T22:46:09.276Z,49.05
2019-04-06T22:48:38.294Z,41.42
2019-04-06T22:51:07.012Z,46.65
2019-04-06T22:53:36.015Z,51.23
2019-04-06T22:56:04.653Z,46.53
2019-04-06T22:58:33.527Z,41.25
2019-04-06T23:01:10.975Z,41.42
2019-04-06T23:03:59.567Z,43.95
2019-04-06T23:06:34.113Z,55.98
2019-04-06T23:09:05.607Z,49.30
2019-04-06T23:11:34.417Z,43.38
2019-04-06T23:14:03.256Z,48.55
2019-04-06T23:16:31.796Z,47.27
2019-04-06T23:19:00.366Z,46.65
2019-04-06T23:21:29.962Z,48.33
2019-04-06T23:23:59.218Z,50.15
2019-04-06T23:26:27.967Z,43.68
2019-04-06T23:28:56.745Z,44.95
2019-04-06T23:31:25.768Z,49.45
2019-04-06T23:33:55.060Z,44.90
2019-04-06T23:36:24.936Z,42.62
2019-04-06T23:38:53.478Z,44.95
2019-04-06T23:41:23.730Z,45.30
2019-04-06T23:46:22.391Z,39.45
2019-04-06T23:48:51.000Z,45.63
2019-04-06T23:51:20.036Z,39.65
2019-04-06T23:53:49.034Z,48.05
2019-04-06T23:56:18.702Z,40.15
2019-04-06T23:58:47.319Z,39.73
